createdAt,value
2022-08-16T00:01:28.868Z,12.93
2022-08-16T00:04:02.158Z,12.70
2022-08-16T00:06:33.549Z,10.48
2022-08-16T00:09:02.872Z,12.88
2022-08-16T00:11:30.880Z,12.50
2022-08-16T00:13:59.593Z,11.82
2022-08-16T00:17:05.736Z,11.57
2022-08-16T00:19:24.605Z,13.52
2022-08-16T00:22:01.617Z,13.25
2022-08-16T00:24:36.295Z,13.25
2022-08-16T00:27:06.697Z,13.68
2022-08-16T00:29:36.579Z,16.35
2022-08-16T00:32:07.975Z,11.68
2022-08-16T00:34:43.392Z,14.43
2022-08-16T00:37:16.877Z,13.60
2022-08-16T00:39:57.720Z,17.73
2022-08-16T00:42:31.844Z,16.48
2022-08-16T00:45:06.276Z,14.18
2022-08-16T00:47:37.993Z,13.55
2022-08-16T00:50:11.403Z,15.30
2022-08-16T00:52:50.863Z,16.35
2022-08-16T00:55:23.350Z,15.30
2022-08-16T00:57:58.490Z,14.43
2022-08-16T01:00:31.055Z,16.02
2022-08-16T01:03:03.563Z,14.07
2022-08-16T01:05:32.972Z,18.50
2022-08-16T01:08:02.702Z,12.60
2022-08-16T01:10:53.169Z,14.10
2022-08-16T01:13:23.952Z,17.52
2022-08-16T01:15:58.335Z,14.50
2022-08-16T01:18:40.061Z,14.65
2022-08-16T01:21:33.931Z,13.10
2022-08-16T01:24:53.456Z,13.73
2022-08-16T01:27:09.081Z,14.50
2022-08-16T01:29:58.691Z,14.32
2022-08-16T01:32:31.872Z,15.60
2022-08-16T01:35:09.372Z,16.25
2022-08-16T01:37:54.141Z,17.20
2022-08-16T01:40:31.448Z,12.40
2022-08-16T01:43:00.116Z,15.70
2022-08-16T01:45:40.852Z,12.50
2022-08-16T01:48:19.906Z,16.40
2022-08-16T01:51:09.217Z,15.63
2022-08-16T01:53:42.055Z,13.23
2022-08-16T01:56:29.014Z,20.73
2022-08-16T01:59:00.390Z,15.27
2022-08-16T02:01:31.859Z,12.23
2022-08-16T02:04:10.987Z,16.88
2022-08-16T02:06:45.900Z,14.90
2022-08-16T02:09:17.883Z,14.43
2022-08-16T02:11:53.210Z,14.10
2022-08-16T02:14:26.575Z,12.15
2022-08-16T02:16:57.427Z,16.08
2022-08-16T02:20:00.159Z,17.33
2022-08-16T02:22:36.018Z,12.68
2022-08-16T02:25:14.770Z,13.13
2022-08-16T02:27:47.947Z,13.32
2022-08-16T02:30:35.914Z,15.88
2022-08-16T02:33:08.261Z,14.82
2022-08-16T02:35:49.701Z,16.17
2022-08-16T02:38:24.278Z,12.98
2022-08-16T02:40:54.636Z,15.30
2022-08-16T02:43:26.610Z,15.07
2022-08-16T02:45:58.659Z,16.77
2022-08-16T02:48:30.093Z,17.92
2022-08-16T02:51:06.520Z,14.05
2022-08-16T02:53:45.136Z,14.48
2022-08-16T02:56:16.120Z,14.65
2022-08-16T02:58:48.090Z,17.15
2022-08-16T03:01:24.683Z,15.05
2022-08-16T03:04:39.998Z,23.13
2022-08-16T03:06:56.854Z,15.60
2022-08-16T03:09:48.212Z,14.70
2022-08-16T03:12:30.466Z,13.98
2022-08-16T03:15:08.020Z,20.70
2022-08-16T03:17:37.596Z,14.18
2022-08-16T03:20:32.139Z,18.30
2022-08-16T03:23:03.194Z,16.55
2022-08-16T03:25:41.030Z,17.05
2022-08-16T03:28:12.408Z,16.60
2022-08-16T03:30:42.975Z,15.65
2022-08-16T03:33:14.212Z,18.52
2022-08-16T03:35:49.858Z,17.00
2022-08-16T03:38:35.019Z,16.77
2022-08-16T03:41:24.299Z,15.55
2022-08-16T03:43:56.914Z,14.27
2022-08-16T03:46:47.195Z,16.38
2022-08-16T03:49:23.916Z,15.15
2022-08-16T03:52:07.426Z,17.05
2022-08-16T03:54:38.164Z,16.60
2022-08-16T03:57:16.442Z,14.00
2022-08-16T03:59:45.891Z,18.67
2022-08-16T04:02:22.182Z,17.83
2022-08-16T04:04:54.086Z,17.00
2022-08-16T04:07:24.814Z,15.77
2022-08-16T04:09:53.736Z,17.35
2022-08-16T04:12:53.397Z,18.90
2022-08-16T04:15:16.812Z,14.75
2022-08-16T04:17:57.923Z,20.10
2022-08-16T04:20:33.977Z,18.33
2022-08-16T04:23:08.228Z,16.05
2022-08-16T04:25:38.831Z,17.42
2022-08-16T04:28:29.330Z,18.83
2022-08-16T04:30:59.197Z,22.38
2022-08-16T04:33:34.786Z,16.90
2022-08-16T04:36:04.967Z,16.90
2022-08-16T04:38:34.683Z,18.15
2022-08-16T04:41:03.697Z,16.98
2022-08-16T04:43:38.594Z,17.92
2022-08-16T04:47:00.231Z,14.98
2022-08-16T04:49:05.338Z,15.40
2022-08-16T04:51:35.757Z,16.30
2022-08-16T04:54:05.606Z,16.75
2022-08-16T04:56:34.853Z,14.82
2022-08-16T04:59:11.934Z,19.10
2022-08-16T05:01:58.039Z,15.18
2022-08-16T05:04:30.210Z,18.55
2022-08-16T05:06:59.973Z,17.27
2022-08-16T05:09:45.208Z,21.67
2022-08-16T05:12:18.252Z,17.88
2022-08-16T05:15:02.057Z,20.35
2022-08-16T05:17:32.653Z,21.38
2022-08-16T05:20:35.182Z,20.70
2022-08-16T05:22:56.426Z,22.77
2022-08-16T05:25:24.728Z,24.23
2022-08-16T05:28:11.862Z,17.02
2022-08-16T05:30:44.769Z,21.05
2022-08-16T05:33:21.521Z,20.70
2022-08-16T05:35:55.229Z,22.42
2022-08-16T05:38:47.079Z,21.85
2022-08-16T05:41:17.320Z,24.52
2022-08-16T05:43:48.113Z,19.60
2022-08-16T05:46:34.449Z,22.20
2022-08-16T05:49:10.702Z,23.70
2022-08-16T05:51:45.735Z,24.23
2022-08-16T05:54:25.635Z,21.27
2022-08-16T05:56:57.940Z,22.70
2022-08-16T05:59:29.136Z,21.38
2022-08-16T06:01:59.326Z,18.52
2022-08-16T06:04:35.899Z,20.63
2022-08-16T06:07:24.781Z,23.35
2022-08-16T06:10:05.750Z,18.13
2022-08-16T06:12:36.630Z,23.33
2022-08-16T06:15:11.747Z,21.60
2022-08-16T06:17:44.569Z,21.33
2022-08-16T06:20:24.080Z,18.67
2022-08-16T06:23:03.896Z,18.08
2022-08-16T06:25:52.956Z,18.27
2022-08-16T06:28:36.414Z,17.23
2022-08-16T06:31:12.237Z,20.27
2022-08-16T06:34:53.241Z,17.08
2022-08-16T06:36:59.454Z,17.88
2022-08-16T06:39:30.917Z,17.10
2022-08-16T06:42:07.810Z,17.17
2022-08-16T06:44:51.279Z,14.30
2022-08-16T06:47:56.414Z,18.45
2022-08-16T06:50:28.646Z,13.43
2022-08-16T06:53:06.845Z,14.70
2022-08-16T06:55:43.382Z,12.43
2022-08-16T06:58:22.735Z,15.35
2022-08-16T07:01:10.043Z,11.73
2022-08-16T07:03:55.472Z,12.73
2022-08-16T07:06:31.617Z,13.35
2022-08-16T07:09:09.395Z,11.23
2022-08-16T07:11:48.131Z,12.13
2022-08-16T07:14:28.573Z,10.45
2022-08-16T07:17:01.017Z,9.07
2022-08-16T07:20:03.053Z,9.90
2022-08-16T07:22:39.253Z,10.93
2022-08-16T07:25:24.637Z,9.70
2022-08-16T07:27:54.833Z,11.13
2022-08-16T07:30:26.637Z,11.67
2022-08-16T07:33:52.005Z,10.23
2022-08-16T07:36:14.935Z,9.10
2022-08-16T07:38:51.807Z,9.93
2022-08-16T07:41:20.832Z,10.60
2022-08-16T07:43:56.846Z,10.00
2022-08-16T07:46:37.676Z,9.63
2022-08-16T07:49:20.065Z,10.33
2022-08-16T07:51:48.927Z,9.13
2022-08-16T07:54:32.370Z,8.80
2022-08-16T07:57:12.081Z,10.53
2022-08-16T07:59:46.022Z,9.23
2022-08-16T08:02:20.547Z,9.07
2022-08-16T08:04:54.517Z,9.30
2022-08-16T08:07:23.001Z,9.07
2022-08-16T08:09:57.050Z,11.63
2022-08-16T08:12:32.475Z,9.07
2022-08-16T08:15:10.584Z,9.00
2022-08-16T08:17:42.884Z,9.17
2022-08-16T08:20:26.698Z,10.73
2022-08-16T08:23:01.266Z,9.60
2022-08-16T08:25:55.074Z,9.77
2022-08-16T08:28:31.912Z,9.80
2022-08-16T08:31:05.699Z,9.37
2022-08-16T08:33:38.347Z,12.40
2022-08-16T08:36:21.959Z,12.37
2022-08-16T08:38:53.460Z,10.10
2022-08-16T08:41:28.414Z,7.90
2022-08-16T08:43:58.966Z,10.50
2022-08-16T08:46:35.658Z,9.50
2022-08-16T08:49:08.836Z,10.00
2022-08-16T08:51:42.910Z,8.67
2022-08-16T08:54:18.826Z,7.97
2022-08-16T08:56:53.472Z,7.40
2022-08-16T08:59:40.856Z,8.80
2022-08-16T09:02:15.001Z,10.93
2022-08-16T09:04:52.638Z,7.80
2022-08-16T09:07:23.607Z,12.03
2022-08-16T09:10:06.099Z,8.47
2022-08-16T09:12:37.536Z,8.20
2022-08-16T09:15:21.730Z,8.67
2022-08-16T09:17:57.019Z,7.40
2022-08-16T09:20:30.356Z,8.47
2022-08-16T09:22:59.436Z,7.33
2022-08-16T09:25:33.606Z,6.87
2022-08-16T09:28:09.001Z,7.03
2022-08-16T09:30:43.146Z,7.30
2022-08-16T09:33:20.018Z,9.17
2022-08-16T09:35:53.566Z,7.07
2022-08-16T09:38:31.953Z,7.40
2022-08-16T09:41:01.171Z,7.17
2022-08-16T09:46:48.992Z,7.47
2022-08-16T09:49:08.434Z,7.00
2022-08-16T09:51:37.313Z,7.53
2022-08-16T09:54:09.721Z,6.97
2022-08-16T09:56:52.900Z,6.70
2022-08-16T09:59:23.311Z,7.47
2022-08-16T10:01:53.224Z,7.10
2022-08-16T10:04:30.497Z,6.63
2022-08-16T10:07:12.020Z,6.50
2022-08-16T10:09:54.588Z,6.57
2022-08-16T10:12:43.440Z,8.13
2022-08-16T10:15:16.913Z,6.97
2022-08-16T10:18:01.316Z,7.70
2022-08-16T10:20:35.135Z,6.90
2022-08-16T10:23:07.378Z,8.70
2022-08-16T10:27:20.518Z,8.50
2022-08-16T10:28:31.915Z,6.70
2022-08-16T10:31:03.520Z,6.37
2022-08-16T10:33:35.398Z,5.93
2022-08-16T10:36:39.317Z,8.87
2022-08-16T10:39:02.139Z,6.50
2022-08-16T10:41:32.942Z,7.07
2022-08-16T10:44:01.533Z,5.80
2022-08-16T10:46:39.098Z,8.00
2022-08-16T10:49:09.274Z,4.67
2022-08-16T10:52:02.695Z,3.50
2022-08-16T10:54:30.181Z,4.30
2022-08-16T10:57:04.009Z,4.27
2022-08-16T10:59:45.911Z,3.20
2022-08-16T11:02:58.871Z,4.10
2022-08-16T11:05:14.170Z,3.80
2022-08-16T11:07:52.394Z,4.43
2022-08-16T11:19:05.836Z,4.40
2022-08-16T11:22:38.597Z,3.33
2022-08-16T11:24:42.843Z,4.40
2022-08-16T11:27:23.566Z,5.20
2022-08-16T11:29:54.996Z,6.60
2022-08-16T11:32:31.833Z,6.00
2022-08-16T11:35:10.509Z,10.10
2022-08-16T11:40:33.380Z,5.57
2022-08-16T11:43:05.582Z,8.07
2022-08-16T11:45:35.234Z,7.20
2022-08-16T11:48:07.020Z,6.13
2022-08-16T11:50:35.722Z,8.13
2022-08-16T11:53:06.094Z,5.97
2022-08-16T11:55:39.277Z,5.93
2022-08-16T11:58:14.350Z,5.50
2022-08-16T12:00:51.829Z,7.10
2022-08-16T12:03:34.335Z,7.90
2022-08-16T12:06:30.265Z,8.07
2022-08-16T12:09:02.096Z,7.73
2022-08-16T12:11:33.393Z,6.73
2022-08-16T12:14:04.614Z,7.83
2022-08-16T12:16:34.870Z,6.97
2022-08-16T12:19:04.391Z,7.53
2022-08-16T12:21:35.967Z,8.20
2022-08-16T12:24:22.129Z,7.37
2022-08-16T12:26:54.355Z,5.93
2022-08-16T12:29:23.098Z,6.00
2022-08-16T12:32:01.336Z,8.57
2022-08-16T12:34:50.823Z,11.90
2022-08-16T12:37:23.019Z,10.70
2022-08-16T12:39:52.931Z,9.33
2022-08-16T12:42:24.440Z,6.20
2022-08-16T12:45:04.265Z,6.77
2022-08-16T12:47:50.008Z,7.70
2022-08-16T12:50:20.137Z,7.23
2022-08-16T12:52:53.063Z,7.33
2022-08-16T12:55:23.844Z,6.00
2022-08-16T12:58:03.229Z,7.77
2022-08-16T13:00:43.796Z,6.70
2022-08-16T13:03:12.800Z,11.43
2022-08-16T13:05:47.706Z,8.57
2022-08-16T13:08:27.598Z,9.60
2022-08-16T13:10:59.445Z,9.97
2022-08-16T13:13:29.603Z,7.40
2022-08-16T13:16:03.731Z,7.07
2022-08-16T13:18:36.184Z,8.90
2022-08-16T13:21:05.909Z,7.60
2022-08-16T13:23:35.848Z,7.77
2022-08-16T13:26:04.873Z,8.63
2022-08-16T13:28:34.607Z,9.07
2022-08-16T13:31:29.684Z,8.70
2022-08-16T13:33:58.658Z,8.83
2022-08-16T13:36:47.922Z,7.07
2022-08-16T13:39:15.214Z,10.93
2022-08-16T13:41:43.180Z,8.70
2022-08-16T13:44:12.549Z,7.13
2022-08-16T13:46:44.750Z,8.07
2022-08-16T13:53:24.413Z,6.20
2022-08-16T13:55:57.945Z,5.80
2022-08-16T13:58:37.143Z,6.10
2022-08-16T14:01:17.044Z,5.67
2022-08-16T14:03:45.972Z,9.93
2022-08-16T14:06:15.882Z,6.80
2022-08-16T14:08:58.809Z,5.70
2022-08-16T14:11:34.907Z,5.10
2022-08-16T14:14:05.471Z,5.50
2022-08-16T14:16:34.951Z,5.40
2022-08-16T14:19:03.722Z,6.10
2022-08-16T14:21:34.808Z,6.70
2022-08-16T14:24:08.149Z,5.63
2022-08-16T14:26:52.669Z,4.97
2022-08-16T14:29:21.299Z,4.50
2022-08-16T14:31:54.206Z,4.53
2022-08-16T14:34:25.746Z,4.90
2022-08-16T14:36:58.213Z,4.33
2022-08-16T14:39:29.611Z,6.40
2022-08-16T14:42:04.803Z,5.20
2022-08-16T14:44:33.944Z,7.43
2022-08-16T14:47:04.227Z,6.70
2022-08-16T14:49:34.627Z,4.27
2022-08-16T14:52:08.716Z,3.80
2022-08-16T14:54:39.133Z,4.27
2022-08-16T14:57:08.161Z,5.63
2022-08-16T14:59:41.160Z,7.50
2022-08-16T15:02:27.679Z,3.80
2022-08-16T15:05:04.463Z,3.90
2022-08-16T15:07:35.254Z,5.13
2022-08-16T15:10:06.765Z,7.17
2022-08-16T15:12:36.482Z,5.20
2022-08-16T15:15:13.056Z,5.70
2022-08-16T15:17:56.705Z,4.87
2022-08-16T15:20:29.578Z,4.33
2022-08-16T15:22:59.577Z,3.23
2022-08-16T15:25:31.905Z,5.37
2022-08-16T15:28:04.719Z,3.90
2022-08-16T15:30:58.279Z,3.43
2022-08-16T15:33:25.853Z,7.70
2022-08-16T15:35:58.383Z,5.07
2022-08-16T15:38:43.525Z,4.33
2022-08-16T15:41:47.954Z,4.13
2022-08-16T15:44:22.445Z,5.00
2022-08-16T15:46:55.600Z,4.57
2022-08-16T15:49:34.545Z,4.03
2022-08-16T15:52:11.118Z,4.77
2022-08-16T15:54:51.404Z,4.00
2022-08-16T15:57:21.137Z,3.83
2022-08-16T15:59:56.118Z,4.17
2022-08-16T16:02:29.324Z,5.17
2022-08-16T16:05:01.029Z,6.17
2022-08-16T16:07:31.046Z,8.27
2022-08-16T16:10:00.128Z,3.60
2022-08-16T16:15:22.683Z,3.57
2022-08-16T16:17:52.441Z,6.60
2022-08-16T16:20:21.987Z,3.50
2022-08-16T16:22:53.707Z,5.43
2022-08-16T16:25:21.737Z,5.50
2022-08-16T16:27:55.369Z,4.40
2022-08-16T16:30:32.994Z,3.67
2022-08-16T16:33:21.222Z,4.03
2022-08-16T16:35:54.920Z,7.70
2022-08-16T16:38:28.663Z,5.57
2022-08-16T16:40:57.840Z,4.60
2022-08-16T16:43:31.593Z,7.33
2022-08-16T16:46:03.064Z,6.00
2022-08-16T16:48:51.999Z,3.37
2022-08-16T16:51:23.790Z,4.53
2022-08-16T16:53:57.468Z,5.07
2022-08-16T16:56:31.062Z,5.07
2022-08-16T16:59:04.601Z,4.27
2022-08-16T17:01:59.958Z,6.37
2022-08-16T17:04:31.650Z,3.30
2022-08-16T17:07:01.423Z,3.90
2022-08-16T17:09:30.093Z,3.77
2022-08-16T17:11:58.493Z,4.50
2022-08-16T17:27:59.350Z,4.30
2022-08-16T17:30:45.258Z,7.90
2022-08-16T17:33:15.141Z,3.53
2022-08-16T17:35:55.403Z,4.47
2022-08-16T17:38:38.666Z,5.03
2022-08-16T17:41:12.718Z,3.83
2022-08-16T17:43:44.528Z,3.73
2022-08-16T17:46:51.948Z,4.93
2022-08-16T17:49:02.756Z,5.00
2022-08-16T17:51:30.982Z,6.30
2022-08-16T17:53:59.281Z,5.83
2022-08-16T17:56:27.565Z,8.70
2022-08-16T17:58:57.223Z,8.43
2022-08-16T18:01:28.886Z,6.47
2022-08-16T18:04:09.082Z,7.33
2022-08-16T18:06:38.635Z,5.60
2022-08-16T18:09:07.659Z,4.87
2022-08-16T18:11:41.031Z,8.80
2022-08-16T18:14:11.809Z,5.67
2022-08-16T18:16:40.861Z,5.63
2022-08-16T18:19:09.171Z,5.40
2022-08-16T18:21:54.812Z,6.00
2022-08-16T18:24:24.702Z,6.23
2022-08-16T18:26:52.993Z,4.40
2022-08-16T18:29:22.717Z,7.90
2022-08-16T18:31:51.198Z,3.67
2022-08-16T18:34:20.684Z,5.00
2022-08-16T18:36:48.667Z,4.20
2022-08-16T18:39:16.498Z,10.43
2022-08-16T18:41:47.162Z,9.37
2022-08-16T18:44:26.695Z,4.50
2022-08-16T18:46:58.048Z,6.80
2022-08-16T18:49:26.369Z,5.20
2022-08-16T18:51:57.995Z,5.80
2022-08-16T18:54:28.223Z,5.60
2022-08-16T18:56:58.254Z,5.03
2022-08-16T18:59:29.124Z,6.90
2022-08-16T19:02:05.262Z,6.05
2022-08-16T19:04:54.913Z,7.38
2022-08-16T19:07:31.259Z,6.90
2022-08-16T19:10:01.574Z,5.82
2022-08-16T19:12:38.322Z,4.38
2022-08-16T19:15:15.595Z,5.93
2022-08-16T19:17:46.465Z,4.95
2022-08-16T19:20:16.803Z,6.18
2022-08-16T19:23:04.584Z,17.67
2022-08-16T19:25:46.198Z,5.55
2022-08-16T19:28:46.651Z,7.00
2022-08-16T19:31:06.996Z,6.65
2022-08-16T19:33:37.105Z,6.78
2022-08-16T19:36:05.799Z,5.22
2022-08-16T19:38:34.098Z,5.85
2022-08-16T19:41:02.305Z,5.30
2022-08-16T19:43:30.151Z,4.72
2022-08-16T19:45:58.144Z,5.00
2022-08-16T19:48:26.023Z,4.90
2022-08-16T19:50:55.306Z,5.70
2022-08-16T19:53:23.776Z,5.85
2022-08-16T19:55:51.967Z,6.65
2022-08-16T19:58:20.118Z,9.15
2022-08-16T20:00:54.044Z,11.30
2022-08-16T20:03:25.325Z,12.20
2022-08-16T20:05:55.484Z,10.75
2022-08-16T20:08:23.815Z,7.20
2022-08-16T20:10:52.090Z,6.13
2022-08-16T20:13:23.060Z,6.13
2022-08-16T20:15:51.902Z,6.20
2022-08-16T20:18:24.853Z,6.38
2022-08-16T20:20:55.853Z,4.90
2022-08-16T20:23:25.219Z,5.15
2022-08-16T20:25:55.757Z,6.68
2022-08-16T20:28:51.801Z,6.35
2022-08-16T20:31:13.482Z,8.20
2022-08-16T20:33:41.682Z,5.57
2022-08-16T20:36:16.625Z,7.78
2022-08-16T20:38:47.718Z,13.57
2022-08-16T20:41:16.297Z,6.55
2022-08-16T20:43:45.565Z,6.22
2022-08-16T20:46:14.825Z,8.27
2022-08-16T20:48:43.330Z,6.70
2022-08-16T20:51:13.026Z,10.88
2022-08-16T20:53:42.522Z,5.97
2022-08-16T20:56:12.030Z,9.57
2022-08-16T20:58:40.532Z,6.25
2022-08-16T21:01:09.306Z,5.65
2022-08-16T21:03:37.884Z,7.80
2022-08-16T21:06:06.538Z,5.50
2022-08-16T21:08:52.055Z,7.63
2022-08-16T21:11:23.652Z,6.63
2022-08-16T21:14:00.295Z,5.63
2022-08-16T21:16:29.206Z,5.55
2022-08-16T21:18:57.978Z,6.05
2022-08-16T21:21:33.466Z,5.43
2022-08-16T21:24:04.034Z,7.25
2022-08-16T21:26:32.055Z,6.88
2022-08-16T21:29:00.614Z,4.90
2022-08-16T21:31:29.593Z,5.32
2022-08-16T21:33:58.740Z,6.90
2022-08-16T21:36:34.675Z,9.90
2022-08-16T21:39:07.199Z,6.30
2022-08-16T21:41:36.235Z,8.38
2022-08-16T21:44:05.090Z,6.75
2022-08-16T21:46:34.771Z,6.50
2022-08-16T21:49:04.792Z,7.75
2022-08-16T21:51:33.215Z,8.52
2022-08-16T21:54:01.418Z,10.65
2022-08-16T21:56:31.266Z,7.90
2022-08-16T21:58:59.556Z,6.18
2022-08-16T22:01:27.860Z,11.18
2022-08-16T22:04:01.634Z,6.97
2022-08-16T22:06:44.886Z,9.38
2022-08-16T22:09:16.422Z,8.85
2022-08-16T22:11:46.415Z,6.97
2022-08-16T22:14:14.591Z,6.05
2022-08-16T22:16:44.118Z,7.15
2022-08-16T22:19:13.718Z,9.98
2022-08-16T22:21:42.209Z,6.88
2022-08-16T22:24:10.903Z,6.20
2022-08-16T22:26:43.034Z,8.32
2022-08-16T22:29:15.091Z,6.25
2022-08-16T22:31:45.159Z,7.70
2022-08-16T22:34:15.160Z,10.50
2022-08-16T22:36:43.694Z,7.82
2022-08-16T22:39:15.302Z,7.07
2022-08-16T22:41:45.827Z,6.40
2022-08-16T22:44:15.628Z,6.03
2022-08-16T22:46:44.621Z,6.43
2022-08-16T22:49:13.575Z,8.13
2022-08-16T22:51:41.994Z,6.32
2022-08-16T22:54:45.951Z,7.53
2022-08-16T22:56:58.729Z,7.38
2022-08-16T22:59:30.362Z,9.45
2022-08-16T23:01:59.163Z,6.43
2022-08-16T23:04:27.264Z,7.30
2022-08-16T23:06:55.504Z,8.40
2022-08-16T23:09:23.661Z,10.88
2022-08-16T23:11:51.996Z,11.32
2022-08-16T23:14:20.294Z,8.98
2022-08-16T23:16:49.773Z,7.07
2022-08-16T23:19:18.311Z,6.10
2022-08-16T23:21:49.508Z,6.40
2022-08-16T23:24:20.669Z,9.15
2022-08-16T23:26:49.728Z,8.32
2022-08-16T23:29:24.855Z,9.00
2022-08-16T23:32:00.239Z,7.05
2022-08-16T23:34:30.100Z,6.68
2022-08-16T23:36:58.204Z,6.85
2022-08-16T23:39:27.125Z,6.88
2022-08-16T23:41:55.736Z,6.88
2022-08-16T23:44:58.533Z,6.88
2022-08-16T23:47:13.651Z,6.43
2022-08-16T23:49:57.260Z,7.25
2022-08-16T23:52:53.765Z,6.43
2022-08-16T23:55:18.042Z,5.90
2022-08-16T23:57:47.263Z,5.22
